Time;durP1;ratioP1;P1;durP2;ratioP2;P2;SDS_P1;SDS_P2;PMS_P1;PMS_P2;Temp;Humidity;BMP_temperature;BMP_pressure;BME280_temperature;BME280_humidity;BME280_pressure;Samples;Min_cycle;Max_cycle;Signal;HPM_P1;HPM_P2
2022/03/02 00:01:42;;;;;;;12.83;10.83;;;;;;;0.42;85.85;101163.47;4965721;28;20225;-54
2022/03/02 00:04:11;;;;;;;11.83;10.03;;;;;;;0.40;85.44;101165.06;4965739;28;20190;-54
2022/03/02 00:06:36;;;;;;;11.03;9.57;;;;;;;0.38;85.07;101181.09;4962470;28;20214;-54
2022/03/02 00:09:02;;;;;;;10.80;9.57;;;;;;;0.37;84.94;101187.84;4964764;28;20214;-52
2022/03/02 00:11:28;;;;;;;10.57;9.33;;;;;;;0.37;85.16;101187.84;4967033;28;20712;-57
2022/03/02 00:13:54;;;;;;;10.87;8.83;;;;;;;0.38;85.18;101176.84;4964158;28;20371;-54
2022/03/02 00:16:20;;;;;;;11.37;9.47;;;;;;;0.38;85.12;101186.19;4963612;28;20285;-54
2022/03/02 00:18:45;;;;;;;10.87;9.50;;;;;;;0.40;85.56;101190.53;4960242;28;20270;-54
2022/03/02 00:21:11;;;;;;;13.47;10.50;;;;;;;0.42;85.75;101191.50;4966351;28;20273;-54
2022/03/02 00:23:37;;;;;;;12.67;9.90;;;;;;;0.42;86.33;101193.16;4964785;28;20270;-53
2022/03/02 00:26:02;;;;;;;10.13;9.07;;;;;;;0.42;86.61;101183.84;4965524;28;20201;-53
2022/03/02 00:28:28;;;;;;;13.30;11.00;;;;;;;0.42;87.14;101178.75;4964193;28;20206;-53
2022/03/02 00:30:53;;;;;;;11.47;10.20;;;;;;;0.44;87.53;101176.28;4967273;28;20198;-54
2022/03/02 00:33:19;;;;;;;13.07;10.17;;;;;;;0.42;88.33;101168.56;4965373;28;20666;-54
2022/03/02 00:35:44;;;;;;;14.57;11.97;;;;;;;0.41;88.64;101169.38;4964959;28;20195;-52
2022/03/02 00:38:10;;;;;;;14.53;10.40;;;;;;;0.37;88.87;101170.03;4964654;28;20216;-55
2022/03/02 00:40:40;;;;;;;12.93;11.00;;;;;;;0.32;89.02;101163.81;4963907;28;20243;-53
2022/03/02 00:43:07;;;;;;;13.33;10.60;;;;;;;0.27;89.12;101155.97;4966121;28;20571;-54
2022/03/02 00:45:32;;;;;;;14.57;11.53;;;;;;;0.26;89.31;101155.91;4964234;28;20763;-53
2022/03/02 00:47:59;;;;;;;10.83;9.33;;;;;;;0.22;89.40;101143.84;5026182;28;20297;-54
2022/03/02 00:50:25;;;;;;;12.47;10.33;;;;;;;0.21;89.39;101147.19;4967378;28;20295;-54
2022/03/02 00:52:50;;;;;;;13.23;11.00;;;;;;;0.18;89.62;101147.03;4964032;28;20260;-54
2022/03/02 00:55:16;;;;;;;12.10;9.57;;;;;;;0.15;89.62;101148.63;4967815;28;20243;-55
2022/03/02 00:57:42;;;;;;;12.80;10.07;;;;;;;0.10;90.06;101132.28;4962850;28;20229;-54
2022/03/02 01:00:09;;;;;;;13.00;10.77;;;;;;;0.08;90.37;101131.34;4963591;28;20281;-53
2022/03/02 01:02:34;;;;;;;10.97;9.53;;;;;;;0.04;90.65;101131.97;4967653;28;20210;-55
2022/03/02 01:04:59;;;;;;;11.40;9.70;;;;;;;-0.01;91.16;101124.13;4965878;28;20192;-55
2022/03/02 01:07:25;;;;;;;14.60;11.33;;;;;;;-0.07;91.37;101136.56;4970187;28;20214;-54
2022/03/02 01:09:50;;;;;;;12.50;10.20;;;;;;;-0.13;91.88;101131.19;4965824;28;20247;-54
2022/03/02 01:12:16;;;;;;;12.17;10.23;;;;;;;-0.20;92.48;101127.47;4962339;28;20180;-53
2022/03/02 01:14:42;;;;;;;13.33;10.80;;;;;;;-0.27;92.61;101127.97;4967404;28;20273;-54
2022/03/02 01:17:10;;;;;;;14.80;11.80;;;;;;;-0.32;93.22;101126.88;4960600;28;20210;-54
2022/03/02 01:19:36;;;;;;;13.53;10.93;;;;;;;-0.39;93.43;101119.72;4964488;28;20187;-53
2022/03/02 01:22:01;;;;;;;15.53;11.00;;;;;;;-0.44;93.62;101111.88;4962572;28;20217;-55
2022/03/02 01:24:27;;;;;;;15.03;11.33;;;;;;;-0.50;93.73;101112.47;4965491;28;20185;-55
2022/03/02 01:26:52;;;;;;;13.27;11.30;;;;;;;-0.54;93.85;101110.56;4960551;28;20586;-54
2022/03/02 01:29:18;;;;;;;13.67;11.50;;;;;;;-0.57;94.40;101107.00;4963936;28;20258;-55
2022/03/02 01:31:43;;;;;;;13.40;10.80;;;;;;;-0.65;94.48;101102.38;4962232;28;20179;-53
2022/03/02 01:34:08;;;;;;;13.67;11.17;;;;;;;-0.68;94.63;101106.44;5033670;28;20186;-54
2022/03/02 01:36:34;;;;;;;12.07;10.13;;;;;;;-0.76;94.65;101108.59;4965459;28;20239;-54
2022/03/02 01:38:59;;;;;;;13.73;11.33;;;;;;;-0.81;94.70;101110.03;5026886;28;20244;-54
2022/03/02 01:41:25;;;;;;;15.33;11.50;;;;;;;-0.88;94.82;101106.31;4959305;28;20202;-55
2022/03/02 01:43:52;;;;;;;12.30;10.37;;;;;;;-0.95;95.21;101099.19;4960277;28;20211;-53
2022/03/02 01:46:19;;;;;;;11.57;10.37;;;;;;;-1.02;95.22;101094.56;4961953;28;20199;-54
2022/03/02 01:48:45;;;;;;;12.07;10.80;;;;;;;-1.08;95.08;101098.56;4961998;28;20549;-53
2022/03/02 01:51:11;;;;;;;13.00;10.07;;;;;;;-1.11;95.33;101097.50;4968301;28;20197;-54
2022/03/02 01:53:36;;;;;;;12.13;10.50;;;;;;;-1.15;95.82;101091.41;4963397;28;20195;-52
2022/03/02 01:56:03;;;;;;;13.13;10.90;;;;;;;-1.15;96.40;101093.94;4965021;28;20728;-54
2022/03/02 01:58:29;;;;;;;14.50;10.83;;;;;;;-1.15;96.54;101093.09;4963831;28;20195;-52
2022/03/02 02:00:56;;;;;;;12.70;10.77;;;;;;;-1.15;96.46;101088.00;4965457;28;20188;-53
2022/03/02 02:03:21;;;;;;;13.67;10.80;;;;;;;-1.18;96.67;101085.31;5030292;28;20218;-54
2022/03/02 02:05:47;;;;;;;12.83;10.40;;;;;;;-1.24;96.79;101084.19;4962178;28;20199;-54
2022/03/02 02:08:12;;;;;;;13.50;10.63;;;;;;;-1.27;96.97;101089.09;4964922;28;20208;-56
2022/03/02 02:10:38;;;;;;;12.00;9.97;;;;;;;-1.29;97.12;101092.34;4966393;28;20183;-54
2022/03/02 02:13:04;;;;;;;11.87;10.07;;;;;;;-1.32;97.12;101097.28;4974529;28;20188;-55
2022/03/02 02:15:30;;;;;;;11.60;9.53;;;;;;;-1.35;97.04;101092.91;4964550;28;20724;-54
2022/03/02 02:17:56;;;;;;;15.27;10.77;;;;;;;-1.34;97.38;101096.31;5029517;28;20355;-54
2022/03/02 02:20:25;;;;;;;13.37;11.27;;;;;;;-1.38;97.54;101087.66;4962583;28;20188;-53
2022/03/02 02:22:51;;;;;;;13.33;10.57;;;;;;;-1.43;97.55;101079.81;4964266;28;20240;-54
2022/03/02 02:25:17;;;;;;;12.30;11.00;;;;;;;-1.46;97.72;101086.41;4963687;28;20645;-53
2022/03/02 02:27:46;;;;;;;12.93;10.60;;;;;;;-1.50;97.79;101087.03;4965609;28;20223;-54
2022/03/02 02:30:13;;;;;;;11.70;10.27;;;;;;;-1.56;97.78;101075.75;4961146;28;20196;-54
2022/03/02 02:32:40;;;;;;;11.03;9.87;;;;;;;-1.59;98.04;101080.66;4957477;28;20184;-54
2022/03/02 02:35:08;;;;;;;13.03;10.63;;;;;;;-1.61;98.31;101081.38;4961550;28;20646;-53
2022/03/02 02:37:34;;;;;;;12.70;9.87;;;;;;;-1.64;98.55;101076.13;4963521;28;20555;-55
2022/03/02 02:40:07;;;;;;;12.30;10.50;;;;;;;-1.66;98.36;101073.53;4963931;28;20194;-54
2022/03/02 02:42:33;;;;;;;12.63;11.23;;;;;;;-1.70;98.73;101072.50;4963905;28;20211;-54
2022/03/02 02:44:58;;;;;;;12.67;10.60;;;;;;;-1.72;98.88;101068.09;4962833;28;20190;-53
2022/03/02 02:47:24;;;;;;;13.53;10.97;;;;;;;-1.73;98.94;101068.91;4961406;28;20211;-54
2022/03/02 02:49:50;;;;;;;13.60;10.53;;;;;;;-1.76;98.91;101076.38;4967344;28;20187;-54
2022/03/02 02:52:15;;;;;;;13.97;10.97;;;;;;;-1.78;99.13;101075.41;4963580;28;20270;-53
2022/03/02 02:54:41;;;;;;;12.23;10.03;;;;;;;-1.82;99.22;101069.31;4962781;28;20191;-61
2022/03/02 02:57:07;;;;;;;10.90;9.40;;;;;;;-1.87;99.25;101070.72;5029250;28;20218;-54
2022/03/02 02:59:32;;;;;;;11.23;9.80;;;;;;;-1.93;99.26;101071.25;4963110;28;20190;-53
2022/03/02 03:01:58;;;;;;;11.10;9.60;;;;;;;-1.97;99.13;101068.47;4961907;28;20217;-53
2022/03/02 03:04:23;;;;;;;10.30;9.20;;;;;;;-2.02;99.24;101066.56;4963432;28;20576;-54
2022/03/02 03:06:49;;;;;;;10.57;9.30;;;;;;;-2.05;99.34;101065.53;4963061;28;20298;-54
2022/03/02 03:09:16;;;;;;;12.30;9.70;;;;;;;-2.09;99.38;101061.06;5028606;28;20198;-54
2022/03/02 03:11:42;;;;;;;12.60;9.20;;;;;;;-2.11;99.42;101063.50;5028678;28;20663;-55
2022/03/02 03:14:12;;;;;;;12.17;9.70;;;;;;;-2.15;99.64;101057.38;4961999;28;20190;-53
2022/03/02 03:16:38;;;;;;;11.67;9.77;;;;;;;-2.17;99.56;101058.09;4962437;28;21025;-54
2022/03/02 03:19:04;;;;;;;14.17;10.47;;;;;;;-2.18;99.94;101053.81;4960639;28;20186;-54
2022/03/02 03:21:29;;;;;;;12.80;9.93;;;;;;;-2.23;100.00;101048.50;4962556;28;20207;-56
2022/03/02 03:23:55;;;;;;;11.00;9.50;;;;;;;-2.25;100.00;101052.59;4960727;28;20182;-56
2022/03/02 03:26:20;;;;;;;12.83;10.30;;;;;;;-2.29;100.00;101038.00;4962934;28;20229;-54
2022/03/02 03:28:46;;;;;;;12.23;10.87;;;;;;;-2.31;100.00;101044.66;4962682;28;20195;-53
2022/03/02 03:31:12;;;;;;;11.70;10.00;;;;;;;-2.34;100.00;101044.47;4964055;28;20227;-54
2022/03/02 03:33:37;;;;;;;12.57;10.20;;;;;;;-2.37;100.00;101035.03;4963809;28;20557;-53
2022/03/02 03:36:03;;;;;;;13.17;10.40;;;;;;;-2.39;100.00;101034.06;4963581;28;20220;-55
2022/03/02 03:38:28;;;;;;;12.93;10.13;;;;;;;-2.40;100.00;101034.00;4964165;28;20198;-54
2022/03/02 03:40:53;;;;;;;10.77;9.10;;;;;;;-2.45;100.00;101042.22;4962915;28;20551;-54
2022/03/02 03:43:19;;;;;;;12.13;10.23;;;;;;;-2.47;100.00;101031.13;4970433;28;20712;-54
2022/03/02 03:45:45;;;;;;;12.83;10.97;;;;;;;-2.49;100.00;101037.75;4964046;28;20280;-54
2022/03/02 03:48:11;;;;;;;15.20;11.97;;;;;;;-2.49;100.00;101032.69;4962317;28;20215;-53
2022/03/02 03:50:36;;;;;;;13.07;10.57;;;;;;;-2.51;100.00;101030.88;4964626;28;20187;-54
2022/03/02 03:53:02;;;;;;;12.67;10.43;;;;;;;-2.52;100.00;101031.66;4966741;28;20197;-54
2022/03/02 03:55:27;;;;;;;15.83;11.23;;;;;;;-2.53;100.00;101028.25;4964725;28;20195;-53
2022/03/02 03:57:52;;;;;;;12.30;10.60;;;;;;;-2.53;100.00;101032.44;4964586;28;20206;-56
2022/03/02 04:00:19;;;;;;;13.57;11.27;;;;;;;-2.56;100.00;101027.19;4964409;28;20644;-54
2022/03/02 04:02:45;;;;;;;13.57;10.50;;;;;;;-2.59;100.00;101025.38;4964308;28;20273;-55
2022/03/02 04:05:10;;;;;;;10.73;9.20;;;;;;;-2.59;100.00;101037.19;4963629;28;20214;-54
2022/03/02 04:07:36;;;;;;;14.03;10.67;;;;;;;-2.62;100.00;101027.72;4965790;28;20218;-55
2022/03/02 04:10:07;;;;;;;14.63;11.20;;;;;;;-2.63;100.00;101026.84;4966218;28;20217;-55
2022/03/02 04:12:32;;;;;;;13.30;10.93;;;;;;;-2.65;100.00;101023.34;4970281;28;20186;-54
2022/03/02 04:14:58;;;;;;;14.00;11.90;;;;;;;-2.67;100.00;101021.53;4963482;28;20201;-54
2022/03/02 04:17:24;;;;;;;13.43;10.90;;;;;;;-2.70;100.00;101018.81;4962648;28;20272;-54
2022/03/02 04:19:50;;;;;;;14.47;11.40;;;;;;;-2.71;100.00;101017.06;4964559;28;20235;-53
2022/03/02 04:22:16;;;;;;;13.37;9.77;;;;;;;-2.75;100.00;101016.03;4963912;28;20210;-54
2022/03/02 04:24:42;;;;;;;13.77;11.23;;;;;;;-2.80;100.00;101007.28;4961970;28;20190;-54
2022/03/02 04:27:07;;;;;;;12.80;10.73;;;;;;;-2.83;100.00;101010.53;4962849;28;20631;-52
2022/03/02 04:29:33;;;;;;;12.40;10.70;;;;;;;-2.83;100.00;100999.50;5033242;28;20186;-53
2022/03/02 04:31:58;;;;;;;14.03;10.83;;;;;;;-2.84;100.00;100997.75;4962231;28;20186;-53
2022/03/02 04:34:24;;;;;;;13.27;11.40;;;;;;;-2.83;100.00;100999.50;4965195;28;20199;-54
2022/03/02 04:36:49;;;;;;;13.23;10.93;;;;;;;-2.81;100.00;100990.34;4964115;28;20210;-53
2022/03/02 04:39:15;;;;;;;11.33;9.67;;;;;;;-2.82;100.00;100993.66;5026397;28;20191;-54
2022/03/02 04:41:40;;;;;;;13.03;9.93;;;;;;;-2.84;100.00;100993.59;5023599;28;20300;-53
2022/03/02 04:44:06;;;;;;;12.67;10.47;;;;;;;-2.86;100.00;100994.25;4952668;28;20200;-54
2022/03/02 04:46:31;;;;;;;12.13;10.17;;;;;;;-2.88;100.00;100989.13;5048256;28;20238;-55
2022/03/02 04:48:56;;;;;;;11.10;9.50;;;;;;;-2.89;100.00;100983.97;4959632;28;20199;-53
2022/03/02 04:51:22;;;;;;;10.93;8.97;;;;;;;-2.92;100.00;100983.00;4961298;28;20198;-52
2022/03/02 04:53:50;;;;;;;11.13;9.03;;;;;;;-2.94;100.00;100984.59;5042794;28;20190;-55
2022/03/02 04:56:15;;;;;;;11.57;9.50;;;;;;;-2.95;100.00;100976.91;4961812;28;20191;-54
2022/03/02 04:58:41;;;;;;;12.53;10.47;;;;;;;-2.95;100.00;100979.44;5019263;28;20550;-53
2022/03/02 05:01:06;;;;;;;11.57;9.93;;;;;;;-2.97;100.00;100979.34;4962151;28;20201;-56
2022/03/02 05:03:32;;;;;;;11.47;10.20;;;;;;;-2.97;100.00;100981.88;5028333;28;20226;-54
2022/03/02 05:05:57;;;;;;;12.70;10.77;;;;;;;-2.96;100.00;100977.69;4963673;28;20316;-54
2022/03/02 05:08:22;;;;;;;14.77;11.30;;;;;;;-2.98;100.00;100977.59;4962848;28;20252;-53
2022/03/02 05:10:48;;;;;;;14.33;11.30;;;;;;;-2.98;100.00;100977.59;4966156;28;20194;-56
2022/03/02 05:13:13;;;;;;;11.83;10.63;;;;;;;-2.99;100.00;100975.84;4972425;28;20533;-56
2022/03/02 05:15:39;;;;;;;11.73;10.53;;;;;;;-2.98;100.00;100975.06;4964897;28;20186;-56
2022/03/02 05:18:04;;;;;;;11.97;10.67;;;;;;;-2.97;100.00;100976.81;4962514;28;20745;-55
2022/03/02 05:20:30;;;;;;;11.47;10.10;;;;;;;-2.97;100.00;100970.88;4966566;28;20570;-54
2022/03/02 05:22:55;;;;;;;13.30;10.40;;;;;;;-2.97;100.00;100979.34;4965503;28;20220;-55
2022/03/02 05:25:24;;;;;;;12.23;10.53;;;;;;;-2.95;100.00;100977.78;4966136;28;20205;-55
2022/03/02 05:27:50;;;;;;;12.67;10.07;;;;;;;-2.94;100.00;100982.06;4963171;28;20226;-54
2022/03/02 05:30:16;;;;;;;14.90;10.93;;;;;;;-2.94;100.00;100982.06;4968720;28;20186;-55
2022/03/02 05:32:42;;;;;;;12.57;10.63;;;;;;;-2.95;100.00;100975.25;4967241;28;20190;-54
2022/03/02 05:35:09;;;;;;;13.07;10.93;;;;;;;-2.96;100.00;100975.16;4967498;28;20587;-54
2022/03/02 05:37:34;;;;;;;12.00;10.27;;;;;;;-2.97;100.00;100981.00;4962421;28;20213;-53
2022/03/02 05:40:02;;;;;;;13.20;10.53;;;;;;;-2.98;100.00;100976.72;5030112;28;20189;-54
2022/03/02 05:42:28;;;;;;;12.43;10.73;;;;;;;-2.99;100.00;100973.31;5031674;28;20218;-54
2022/03/02 05:44:53;;;;;;;11.40;9.40;;;;;;;-3.00;100.00;100975.75;4964289;28;20674;-54
2022/03/02 05:47:18;;;;;;;12.03;10.47;;;;;;;-3.00;100.00;100981.69;4963434;28;20672;-55
2022/03/02 05:49:44;;;;;;;12.50;10.67;;;;;;;-3.01;100.00;100989.22;4968736;28;20543;-55
2022/03/02 05:52:09;;;;;;;13.40;10.90;;;;;;;-3.02;100.00;100998.44;4968169;28;20178;-54
2022/03/02 05:54:34;;;;;;;13.07;10.37;;;;;;;-3.04;100.00;100994.97;4967299;28;20242;-55
2022/03/02 05:57:00;;;;;;;13.77;10.47;;;;;;;-3.07;100.00;101000.72;4964972;28;20209;-55
2022/03/02 05:59:25;;;;;;;13.67;11.07;;;;;;;-3.08;100.00;101008.25;4965122;28;20281;-55
2022/03/02 06:01:51;;;;;;;13.77;11.00;;;;;;;-3.10;100.00;101002.22;4966960;28;20213;-55
2022/03/02 06:04:16;;;;;;;13.87;11.57;;;;;;;-3.14;100.00;100996.09;4964280;28;20670;-54
2022/03/02 06:06:42;;;;;;;16.80;12.00;;;;;;;-3.16;100.00;101000.19;4964860;28;20221;-54
2022/03/02 06:09:09;;;;;;;19.30;13.10;;;;;;;-3.18;100.00;101005.97;4996387;28;20197;-54
2022/03/02 06:11:37;;;;;;;19.47;13.60;;;;;;;-3.19;100.00;101010.16;4968322;28;20651;-54
2022/03/02 06:14:03;;;;;;;20.20;13.97;;;;;;;-3.18;100.00;101011.03;4967443;28;20190;-54
2022/03/02 06:16:28;;;;;;;18.53;14.17;;;;;;;-3.18;100.00;101013.56;4964731;28;20228;-54
2022/03/02 06:18:54;;;;;;;18.57;14.20;;;;;;;-3.19;100.00;101015.22;4963784;28;20194;-54
2022/03/02 06:21:25;;;;;;;16.53;13.07;;;;;;;-3.16;100.00;101002.72;4967807;28;20206;-55
2022/03/02 06:23:51;;;;;;;14.83;11.80;;;;;;;-3.15;100.00;101007.00;4966248;28;20206;-54
2022/03/02 06:26:22;;;;;;;16.13;12.57;;;;;;;-3.12;100.00;101008.84;4963546;28;20648;-54
2022/03/02 06:28:48;;;;;;;16.37;12.57;;;;;;;-3.08;100.00;101009.09;4963839;28;20193;-54
2022/03/02 06:31:14;;;;;;;15.03;12.47;;;;;;;-3.01;100.00;101006.94;4966282;28;20277;-54
2022/03/02 06:33:39;;;;;;;17.10;12.83;;;;;;;-2.96;100.00;101010.63;4965329;28;20269;-54
2022/03/02 06:36:06;;;;;;;15.47;12.67;;;;;;;-2.86;100.00;101002.75;5018900;28;20339;-53
2022/03/02 06:38:33;;;;;;;15.90;12.33;;;;;;;-2.75;100.00;101000.84;5026997;28;20255;-53
2022/03/02 06:41:05;;;;;;;15.50;12.20;;;;;;;-2.64;100.00;100999.78;4965592;28;20190;-53
2022/03/02 06:43:47;;;;;;;15.83;11.27;;;;;;;-2.49;100.00;101006.47;4966253;28;20263;-54
2022/03/02 06:46:29;;;;;;;14.80;11.30;;;;;;;-2.33;100.00;100998.94;4964566;28;20203;-53
2022/03/02 06:49:15;;;;;;;14.40;11.10;;;;;;;-2.15;100.00;100998.19;4963994;28;20595;-55
2022/03/02 06:51:43;;;;;;;12.87;11.10;;;;;;;-1.97;100.00;101003.38;4964603;28;20185;-53
2022/03/02 06:54:10;;;;;;;11.67;10.27;;;;;;;-1.80;100.00;100990.72;5029875;28;20286;-54
2022/03/02 06:56:45;;;;;;;12.73;10.60;;;;;;;-1.65;100.00;101006.75;4966202;28;20210;-53
2022/03/02 06:59:12;;;;;;;13.33;9.93;;;;;;;-1.48;100.00;101006.75;4965155;28;20194;-54
2022/03/02 07:01:42;;;;;;;14.10;10.33;;;;;;;-1.32;100.00;101005.84;4961214;28;20248;-55
2022/03/02 07:04:13;;;;;;;12.30;10.10;;;;;;;-1.16;100.00;101010.91;4964891;28;20206;-53
2022/03/02 07:06:38;;;;;;;13.03;11.00;;;;;;;-1.00;100.00;101010.03;4961900;28;20225;-56
2022/03/02 07:09:03;;;;;;;15.97;11.40;;;;;;;-0.83;100.00;101010.84;4966924;28;20279;-54
2022/03/02 07:11:33;;;;;;;14.47;11.67;;;;;;;-0.67;100.00;101007.38;4959697;28;20698;-54
2022/03/02 07:13:59;;;;;;;19.80;11.70;;;;;;;-0.54;99.61;100997.81;5043115;28;20691;-53
2022/03/02 07:16:24;;;;;;;15.07;11.43;;;;;;;-0.41;99.53;101001.78;4962626;28;20216;-54
2022/03/02 07:18:51;;;;;;;14.03;11.27;;;;;;;-0.32;99.03;101000.56;4965900;28;20585;-53
2022/03/02 07:21:16;;;;;;;13.53;11.10;;;;;;;-0.26;98.60;101002.53;4964476;28;20698;-57
2022/03/02 07:23:54;;;;;;;16.17;11.77;;;;;;;-0.22;97.54;101012.03;4960058;28;20284;-52
2022/03/02 07:26:21;;;;;;;17.17;13.27;;;;;;;-0.21;97.39;101016.34;4965620;28;20266;-56
2022/03/02 07:28:48;;;;;;;19.27;13.97;;;;;;;-0.20;97.18;101007.91;4960834;28;20184;-55
2022/03/02 07:31:15;;;;;;;15.73;12.83;;;;;;;-0.21;96.96;101006.16;5030984;28;20203;-55
2022/03/02 07:33:42;;;;;;;14.50;12.97;;;;;;;-0.20;96.99;101007.00;4967149;28;20195;-54
2022/03/02 07:36:09;;;;;;;17.20;12.77;;;;;;;-0.18;97.00;101011.41;4970326;28;20193;-54
2022/03/02 07:38:35;;;;;;;12.67;11.37;;;;;;;-0.09;96.82;101010.94;4970425;28;20202;-54
2022/03/02 07:41:05;;;;;;;18.43;11.53;;;;;;;0.04;96.57;101006.41;4967930;28;20202;-55
2022/03/02 07:43:30;;;;;;;14.33;10.73;;;;;;;0.17;96.26;101013.81;4970275;28;20670;-54
2022/03/02 07:45:55;;;;;;;12.30;10.13;;;;;;;0.31;96.13;101016.94;4970610;28;20199;-54
2022/03/02 07:48:21;;;;;;;15.60;11.50;;;;;;;0.43;95.63;101022.59;4969997;28;20466;-53
2022/03/02 07:50:46;;;;;;;15.83;10.90;;;;;;;0.50;95.72;101022.84;4967936;28;20699;-55
2022/03/02 07:53:16;;;;;;;17.17;11.67;;;;;;;0.55;96.03;101018.84;4970185;28;20677;-54
2022/03/02 07:55:44;;;;;;;17.77;10.77;;;;;;;0.59;96.30;101020.72;4969581;28;20211;-54
2022/03/02 07:58:09;;;;;;;16.23;11.63;;;;;;;0.70;96.56;101016.97;4965877;28;20293;-53
2022/03/02 08:00:36;;;;;;;14.33;10.73;;;;;;;0.82;96.71;101021.72;4969035;28;20638;-54
2022/03/02 08:03:02;;;;;;;16.90;10.97;;;;;;;0.95;96.91;101022.25;4969139;28;20242;-53
2022/03/02 08:05:29;;;;;;;19.17;10.40;;;;;;;1.16;96.68;101019.72;4965853;28;20194;-55
2022/03/02 08:07:54;;;;;;;14.40;11.00;;;;;;;1.38;96.29;101031.66;5031461;28;20212;-54
2022/03/02 08:10:20;;;;;;;16.07;10.93;;;;;;;1.55;95.73;101017.03;4970946;28;20671;-54
2022/03/02 08:12:46;;;;;;;16.30;11.53;;;;;;;1.71;94.80;101012.50;4967248;28;20187;-55
2022/03/02 08:15:12;;;;;;;13.80;11.77;;;;;;;1.85;94.15;101007.97;4966631;28;20293;-55
2022/03/02 08:17:37;;;;;;;15.00;11.43;;;;;;;1.99;93.42;101006.81;5025884;28;20252;-55
2022/03/02 08:20:05;;;;;;;12.73;10.73;;;;;;;2.04;92.45;101010.38;4972270;28;20716;-55
2022/03/02 08:22:31;;;;;;;13.17;11.77;;;;;;;2.10;92.10;101009.75;4969698;28;20213;-55
2022/03/02 08:25:07;;;;;;;13.07;11.57;;;;;;;2.18;91.80;101008.34;4968518;28;20198;-54
2022/03/02 08:27:33;;;;;;;13.07;11.77;;;;;;;2.29;91.15;101009.59;4965688;28;20225;-55
2022/03/02 08:30:00;;;;;;;13.00;11.60;;;;;;;2.32;90.83;101005.44;5031924;28;20255;-54
2022/03/02 08:32:26;;;;;;;12.17;10.97;;;;;;;2.33;90.14;100999.50;4965708;28;20186;-55
2022/03/02 08:34:52;;;;;;;13.33;11.93;;;;;;;2.38;89.83;101005.66;4962830;28;20197;-54
2022/03/02 08:37:18;;;;;;;14.00;12.30;;;;;;;2.42;89.57;101005.81;5035094;28;20639;-55
2022/03/02 08:39:45;;;;;;;14.33;11.77;;;;;;;2.46;89.12;101005.94;4964253;28;20182;-55
2022/03/02 08:42:11;;;;;;;15.07;12.67;;;;;;;2.48;88.85;100997.50;4964652;28;20210;-55
2022/03/02 08:44:37;;;;;;;12.57;10.87;;;;;;;2.57;88.74;100999.50;4964896;28;20282;-54
2022/03/02 08:47:03;;;;;;;15.93;11.57;;;;;;;2.74;88.81;100985.63;4963575;28;20309;-55
2022/03/02 08:49:29;;;;;;;12.33;11.03;;;;;;;2.95;88.62;100984.59;5032086;28;20284;-54
2022/03/02 08:51:56;;;;;;;13.07;10.67;;;;;;;3.14;88.17;100998.91;5035307;28;20193;-54
2022/03/02 08:54:22;;;;;;;13.07;10.30;;;;;;;3.36;87.74;100999.56;4968645;28;20357;-56
2022/03/02 08:56:49;;;;;;;12.60;10.70;;;;;;;3.56;87.43;101000.19;4966383;28;20836;-54
2022/03/02 08:59:17;;;;;;;16.20;12.17;;;;;;;3.62;86.17;101004.66;4964296;28;21131;-56
2022/03/02 09:01:48;;;;;;;13.13;11.23;;;;;;;3.67;86.07;101003.09;4960102;28;20226;-55
2022/03/02 09:04:16;;;;;;;11.93;10.33;;;;;;;3.80;86.18;101009.47;4965165;28;20297;-54
2022/03/02 09:06:42;;;;;;;13.43;12.03;;;;;;;3.84;85.13;101007.88;4968380;28;20210;-55
2022/03/02 09:09:07;;;;;;;12.93;11.53;;;;;;;3.87;84.60;101010.53;5032363;28;20198;-55
2022/03/02 09:11:33;;;;;;;13.03;11.43;;;;;;;3.90;84.62;101003.78;4967474;28;20267;-55
2022/03/02 09:14:03;;;;;;;12.70;11.17;;;;;;;4.00;84.25;101001.53;4969232;28;20236;-55
2022/03/02 09:16:29;;;;;;;13.40;11.93;;;;;;;4.04;83.52;100999.09;4966783;28;20218;-52
2022/03/02 09:18:55;;;;;;;11.33;10.10;;;;;;;4.03;82.19;100992.22;4965970;28;20299;-55
2022/03/02 09:21:22;;;;;;;14.87;12.83;;;;;;;4.03;81.83;100994.78;4962348;28;20642;-54
2022/03/02 09:23:48;;;;;;;13.40;11.90;;;;;;;4.07;81.29;100994.06;4965449;28;20717;-54
2022/03/02 09:26:17;;;;;;;14.40;12.00;;;;;;;4.09;80.49;101001.78;4966522;28;20273;-54
2022/03/02 09:28:45;;;;;;;18.90;15.47;;;;;;;4.14;80.49;100994.22;4969643;28;20193;-54
2022/03/02 09:31:14;;;;;;;15.87;13.53;;;;;;;4.25;79.86;100982.59;4967860;28;20241;-55
2022/03/02 09:33:41;;;;;;;15.53;12.83;;;;;;;4.38;79.40;100984.69;4960581;28;20662;-54
2022/03/02 09:36:10;;;;;;;15.17;12.40;;;;;;;4.56;78.91;100984.31;4967624;28;20248;-55
2022/03/02 09:38:38;;;;;;;17.73;12.00;;;;;;;4.67;77.98;100982.03;4965504;28;20197;-54
2022/03/02 09:41:06;;;;;;;14.93;12.13;;;;;;;4.65;77.37;100988.81;4967949;28;20196;-55
2022/03/02 09:43:33;;;;;;;13.33;11.00;;;;;;;4.61;76.65;100975.88;4969191;28;20216;-54
2022/03/02 09:46:04;;;;;;;12.10;10.80;;;;;;;4.64;76.91;100984.53;5035606;28;20238;-54
2022/03/02 09:48:32;;;;;;;12.00;10.43;;;;;;;4.78;76.82;100981.44;5015077;28;20269;-54
2022/03/02 09:51:04;;;;;;;11.03;9.90;;;;;;;4.95;76.16;100985.31;4969273;28;20183;-55
2022/03/02 09:53:31;;;;;;;11.80;10.00;;;;;;;5.04;76.02;100988.09;4969905;28;20273;-56
2022/03/02 09:55:59;;;;;;;12.67;10.30;;;;;;;5.17;75.81;100984.16;4964539;28;20223;-54
2022/03/02 09:58:25;;;;;;;10.80;9.70;;;;;;;5.28;75.57;100983.53;4962781;28;20206;-53
2022/03/02 10:00:54;;;;;;;12.77;11.30;;;;;;;5.40;75.10;100977.84;4961874;28;20245;-55
2022/03/02 10:03:20;;;;;;;13.47;12.07;;;;;;;5.44;74.75;100977.06;4966181;28;20249;-54
2022/03/02 10:05:50;;;;;;;13.10;11.07;;;;;;;5.41;74.39;100977.00;4964865;28;20636;-55
2022/03/02 10:08:18;;;;;;;13.30;11.30;;;;;;;5.38;73.87;100974.34;5004345;28;20692;-54
2022/03/02 10:10:47;;;;;;;13.47;11.10;;;;;;;5.42;73.77;100977.03;4968247;28;20203;-53
2022/03/02 10:13:14;;;;;;;13.00;11.23;;;;;;;5.43;72.81;100973.63;5036135;28;20567;-54
2022/03/02 10:15:41;;;;;;;12.43;10.97;;;;;;;5.55;72.96;100978.19;4968237;28;20649;-56
2022/03/02 10:18:08;;;;;;;12.43;11.07;;;;;;;5.62;72.63;100974.06;4965285;28;20212;-55
2022/03/02 10:20:35;;;;;;;12.20;11.00;;;;;;;5.75;72.84;100973.50;4967989;28;20203;-55
2022/03/02 10:23:21;;;;;;;12.43;11.20;;;;;;;5.86;72.41;100962.56;4968339;28;20238;-56
2022/03/02 10:25:53;;;;;;;13.77;11.70;;;;;;;5.92;71.68;100968.69;4964006;28;20204;-55
2022/03/02 10:28:27;;;;;;;13.17;11.23;;;;;;;5.93;71.50;100969.59;4965358;28;20246;-54
2022/03/02 10:31:18;;;;;;;15.53;12.30;;;;;;;6.01;71.57;100977.50;4965641;28;20199;-55
2022/03/02 10:33:52;;;;;;;14.47;11.87;;;;;;;5.99;71.58;100968.84;4959670;28;20791;-54
2022/03/02 10:36:20;;;;;;;13.17;11.77;;;;;;;6.04;71.52;100967.28;4957673;28;20628;-53
2022/03/02 10:38:48;;;;;;;14.47;12.87;;;;;;;6.12;70.69;100972.56;4965201;28;20179;-54
2022/03/02 10:41:14;;;;;;;13.93;12.53;;;;;;;6.22;70.29;100970.19;4967130;28;20192;-53
2022/03/02 10:43:57;;;;;;;15.97;12.40;;;;;;;6.18;70.23;100964.97;4967571;28;20215;-53
2022/03/02 10:46:25;;;;;;;11.97;10.77;;;;;;;6.27;70.49;100970.31;4964745;28;20213;-54
2022/03/02 10:49:16;;;;;;;12.73;11.43;;;;;;;6.44;70.04;100968.06;4961261;28;20559;-54
2022/03/02 10:51:44;;;;;;;12.37;11.17;;;;;;;6.53;69.58;100967.38;4998677;28;20556;-53
2022/03/02 10:54:16;;;;;;;13.47;12.07;;;;;;;6.63;68.60;100966.69;4977915;28;20193;-54
2022/03/02 10:56:43;;;;;;;16.40;12.43;;;;;;;6.61;68.24;100968.38;4966844;28;20304;-53
2022/03/02 10:59:16;;;;;;;12.53;11.23;;;;;;;6.63;68.53;100968.41;4967099;28;20661;-54
2022/03/02 11:01:42;;;;;;;14.73;13.20;;;;;;;6.73;67.90;100966.88;5008933;28;20246;-53
2022/03/02 11:04:08;;;;;;;12.87;11.33;;;;;;;6.74;68.15;100966.88;4962795;28;20252;-55
2022/03/02 11:06:35;;;;;;;11.87;10.77;;;;;;;6.82;67.71;100964.44;4965547;28;20702;-53
2022/03/02 11:09:02;;;;;;;14.00;12.23;;;;;;;6.90;67.66;100960.28;4977834;28;20197;-54
2022/03/02 11:11:32;;;;;;;12.23;11.03;;;;;;;6.91;67.23;100961.16;4961329;28;20278;-54